createdAt,value
2022-11-15T00:02:58.193Z,8.10
2022-11-15T00:08:00.232Z,7.60
2022-11-15T00:13:06.178Z,9.43
2022-11-15T00:18:14.432Z,8.80
2022-11-15T00:23:16.247Z,9.77
2022-11-15T00:28:18.090Z,10.73
2022-11-15T00:33:20.056Z,10.45
2022-11-15T00:38:21.988Z,11.43
2022-11-15T00:43:23.927Z,10.38
2022-11-15T00:48:25.798Z,10.30
2022-11-15T00:53:27.813Z,11.57
2022-11-15T00:58:29.832Z,10.80
2022-11-15T01:03:34.250Z,10.60
2022-11-15T01:08:36.740Z,11.95
2022-11-15T01:13:39.769Z,10.73
2022-11-15T01:18:42.502Z,11.65
2022-11-15T01:23:45.720Z,11.00
2022-11-15T01:28:47.643Z,10.68
2022-11-15T01:33:50.118Z,11.18
2022-11-15T01:38:56.947Z,11.05
2022-11-15T01:44:45.137Z,11.70
2022-11-15T01:49:59.117Z,12.05
2022-11-15T01:55:13.272Z,11.38
2022-11-15T02:00:16.092Z,12.35
2022-11-15T02:05:17.973Z,12.25
2022-11-15T02:10:22.985Z,13.38
2022-11-15T02:15:32.613Z,13.10
2022-11-15T02:21:13.521Z,13.02
2022-11-15T02:26:21.476Z,13.73
2022-11-15T02:31:26.366Z,12.57
2022-11-15T02:36:28.393Z,13.63
2022-11-15T02:41:48.296Z,14.15
2022-11-15T02:47:13.844Z,14.77
2022-11-15T02:52:17.209Z,14.52
2022-11-15T02:57:23.577Z,15.40
2022-11-15T03:02:51.542Z,16.23
2022-11-15T03:08:03.613Z,19.23
2022-11-15T03:13:23.547Z,17.33
2022-11-15T03:18:34.877Z,18.02
2022-11-15T03:23:39.301Z,19.67
2022-11-15T03:29:02.205Z,18.13
2022-11-15T03:34:08.102Z,19.42
2022-11-15T03:39:10.179Z,20.85
2022-11-15T03:44:27.093Z,23.13
2022-11-15T03:49:35.453Z,22.08
2022-11-15T03:54:37.443Z,19.95
2022-11-15T03:59:39.324Z,21.17
2022-11-15T04:04:41.468Z,22.30
2022-11-15T04:10:01.726Z,22.67
2022-11-15T04:15:08.550Z,22.63
2022-11-15T04:20:33.734Z,24.15
2022-11-15T04:25:35.561Z,26.02
2022-11-15T04:30:37.589Z,26.27
2022-11-15T04:35:39.966Z,25.90
2022-11-15T04:40:41.855Z,26.48
2022-11-15T04:45:43.817Z,27.83
2022-11-15T04:50:45.740Z,27.98
2022-11-15T04:55:47.894Z,28.17
2022-11-15T05:00:49.715Z,28.63
2022-11-15T05:05:51.715Z,27.98
2022-11-15T05:10:53.812Z,26.65
2022-11-15T05:15:55.596Z,27.40
2022-11-15T05:20:57.435Z,27.30
2022-11-15T05:26:08.868Z,29.42
2022-11-15T05:31:15.791Z,27.60
2022-11-15T05:36:32.238Z,28.08
2022-11-15T05:41:42.551Z,27.83
2022-11-15T05:46:45.019Z,29.02
2022-11-15T05:51:49.390Z,26.80
2022-11-15T05:56:51.355Z,28.08
2022-11-15T06:01:53.171Z,26.95
2022-11-15T06:06:55.050Z,26.77
2022-11-15T06:11:56.985Z,24.98
2022-11-15T06:16:58.787Z,26.48
2022-11-15T06:22:01.024Z,25.92
2022-11-15T06:27:03.001Z,27.40
2022-11-15T06:32:05.421Z,25.90
2022-11-15T06:37:07.316Z,26.77
2022-11-15T06:42:12.281Z,26.42
2022-11-15T06:47:14.214Z,24.55
2022-11-15T06:52:16.202Z,27.42
2022-11-15T06:57:18.116Z,26.33
2022-11-15T07:02:20.025Z,24.23
2022-11-15T07:07:22.033Z,25.67
2022-11-15T07:12:24.017Z,25.10
2022-11-15T07:17:25.988Z,24.05
2022-11-15T07:22:27.913Z,25.70
2022-11-15T07:27:29.875Z,24.65
2022-11-15T07:32:32.120Z,25.80
2022-11-15T07:37:33.858Z,25.13
2022-11-15T07:42:53.720Z,24.40
2022-11-15T07:47:56.954Z,23.90
2022-11-15T07:53:00.733Z,24.17
2022-11-15T07:58:07.922Z,23.13
2022-11-15T08:03:15.187Z,23.67
2022-11-15T08:08:17.223Z,22.75
2022-11-15T08:13:19.427Z,22.63
2022-11-15T08:18:21.232Z,22.73
2022-11-15T08:23:23.013Z,21.60
2022-11-15T08:28:24.981Z,22.90
2022-11-15T08:33:26.958Z,22.35
2022-11-15T08:38:32.436Z,21.13
2022-11-15T08:43:35.057Z,21.88
2022-11-15T08:48:37.075Z,21.77
2022-11-15T08:53:38.891Z,22.73
2022-11-15T08:58:41.086Z,21.33
2022-11-15T09:03:42.976Z,21.17
2022-11-15T09:08:48.640Z,21.27
2022-11-15T09:13:50.949Z,19.33
2022-11-15T09:18:54.630Z,19.50
2022-11-15T09:23:56.526Z,20.33
2022-11-15T09:28:58.494Z,20.65
2022-11-15T09:34:00.318Z,19.77
2022-11-15T09:39:02.224Z,20.13
2022-11-15T09:44:19.945Z,19.27
2022-11-15T09:49:26.960Z,17.80
2022-11-15T10:05:47.155Z,19.77
2022-11-15T10:11:15.938Z,20.83
2022-11-15T10:16:59.244Z,18.85
2022-11-15T10:22:30.991Z,21.40
2022-11-15T10:27:33.488Z,20.63
2022-11-15T10:32:37.349Z,19.50
2022-11-15T10:37:39.370Z,20.63
2022-11-15T10:42:41.125Z,20.90
2022-11-15T10:47:42.899Z,18.35
2022-11-15T10:52:47.801Z,14.60
2022-11-15T10:57:53.262Z,14.73
2022-11-15T11:03:01.592Z,15.57
2022-11-15T11:08:25.390Z,11.43
2022-11-15T11:13:34.504Z,10.40
2022-11-15T11:19:06.763Z,13.75
2022-11-15T11:24:30.746Z,17.08
2022-11-15T11:29:52.489Z,4.93
2022-11-15T11:35:19.469Z,2.50
2022-11-15T11:40:30.151Z,3.33
2022-11-15T11:45:37.715Z,3.40
2022-11-15T11:50:41.518Z,3.63
2022-11-15T11:55:52.838Z,7.53
2022-11-15T12:01:36.562Z,12.57
2022-11-15T12:06:54.486Z,11.05
2022-11-15T12:12:03.949Z,18.00
2022-11-15T12:17:06.038Z,25.55
2022-11-15T12:22:22.746Z,13.63
2022-11-15T12:27:43.626Z,11.15
2022-11-15T12:32:55.831Z,5.72
2022-11-15T12:37:58.202Z,11.30
2022-11-15T12:42:59.910Z,18.90
2022-11-15T12:48:17.014Z,7.50
2022-11-15T12:53:25.172Z,6.13
2022-11-15T12:58:49.480Z,3.28
2022-11-15T13:04:28.144Z,5.82
2022-11-15T13:09:38.657Z,9.23
2022-11-15T13:14:53.580Z,13.15
2022-11-15T13:19:56.183Z,10.45
2022-11-15T13:25:01.889Z,11.02
2022-11-15T13:30:05.630Z,8.00
2022-11-15T13:35:08.238Z,9.75
2022-11-15T13:40:33.796Z,12.55
2022-11-15T13:45:35.749Z,10.82
2022-11-15T13:50:40.075Z,10.13
2022-11-15T13:55:42.852Z,3.85
2022-11-15T14:00:46.487Z,4.15
2022-11-15T14:06:08.598Z,8.30
2022-11-15T14:11:19.217Z,10.45
2022-11-15T14:16:22.430Z,11.82
2022-11-15T14:21:24.303Z,11.50
2022-11-15T14:26:35.154Z,12.10
2022-11-15T14:31:41.114Z,6.85
2022-11-15T14:36:45.577Z,5.95
2022-11-15T14:41:47.426Z,4.80
2022-11-15T14:46:49.638Z,7.47
2022-11-15T14:51:51.378Z,5.60
2022-11-15T14:56:53.174Z,5.75
2022-11-15T15:01:55.079Z,4.90
2022-11-15T15:06:56.929Z,4.07
2022-11-15T15:12:01.995Z,7.80
2022-11-15T15:17:06.761Z,8.23
2022-11-15T15:22:17.042Z,4.53
2022-11-15T15:27:18.887Z,8.00
2022-11-15T15:32:20.761Z,5.57
2022-11-15T15:37:27.278Z,4.97
2022-11-15T15:42:29.065Z,4.13
2022-11-15T15:47:31.357Z,2.35
2022-11-15T15:52:33.440Z,4.80
2022-11-15T15:57:35.408Z,12.48
2022-11-15T16:02:40.416Z,4.05
2022-11-15T16:07:44.515Z,4.38
2022-11-15T16:12:46.612Z,2.97
2022-11-15T16:17:54.221Z,3.22
2022-11-15T16:22:56.059Z,5.15
2022-11-15T16:27:57.964Z,4.97
2022-11-15T16:32:59.939Z,4.63
2022-11-15T16:38:01.799Z,3.30
2022-11-15T16:43:04.564Z,3.38
2022-11-15T16:48:06.604Z,3.22
2022-11-15T16:53:08.418Z,5.90
2022-11-15T16:58:10.821Z,4.30
2022-11-15T17:03:12.562Z,4.20
2022-11-15T17:08:14.478Z,3.47
2022-11-15T17:13:16.318Z,4.00
2022-11-15T17:18:18.139Z,5.00
2022-11-15T17:23:19.947Z,4.20
2022-11-15T17:28:21.730Z,4.35
2022-11-15T17:33:23.726Z,4.22
2022-11-15T17:38:26.061Z,4.32
2022-11-15T17:43:28.182Z,6.32
2022-11-15T17:48:31.103Z,5.05
2022-11-15T17:53:39.073Z,5.72
2022-11-15T17:58:41.579Z,6.63
2022-11-15T18:03:43.669Z,4.50
2022-11-15T18:08:47.606Z,5.25
2022-11-15T18:13:52.657Z,4.07
2022-11-15T18:18:55.259Z,4.68
2022-11-15T18:23:59.585Z,4.80
2022-11-15T18:29:04.951Z,5.60
2022-11-15T18:34:06.905Z,5.38
2022-11-15T18:39:16.481Z,4.68
2022-11-15T18:44:18.806Z,4.90
2022-11-15T18:49:21.014Z,5.10
2022-11-15T18:54:28.133Z,3.67
2022-11-15T18:59:32.795Z,4.00
2022-11-15T19:04:34.551Z,3.67
2022-11-15T19:09:36.295Z,3.58
2022-11-15T19:14:38.038Z,2.80
2022-11-15T19:19:39.847Z,2.95
2022-11-15T19:24:41.824Z,2.55
2022-11-15T19:29:43.568Z,3.03
2022-11-15T19:34:45.315Z,3.00
2022-11-15T19:39:47.087Z,3.10
2022-11-15T19:44:48.918Z,2.42
2022-11-15T19:49:50.698Z,2.72
2022-11-15T19:54:52.538Z,2.53
2022-11-15T19:59:54.396Z,3.03
2022-11-15T20:04:56.293Z,3.38
2022-11-15T20:09:58.174Z,3.95
2022-11-15T20:14:59.907Z,3.40
2022-11-15T20:20:01.685Z,3.10
2022-11-15T20:25:03.821Z,2.53
2022-11-15T20:30:06.167Z,2.58
2022-11-15T20:35:08.261Z,2.83
2022-11-15T20:40:10.684Z,2.60
2022-11-15T20:45:13.398Z,3.17
2022-11-15T20:50:41.146Z,3.50
2022-11-15T20:55:41.420Z,4.43
2022-11-15T21:00:44.772Z,4.65
2022-11-15T21:05:46.691Z,3.78
2022-11-15T21:11:12.063Z,4.30
2022-11-15T21:16:14.020Z,4.07
2022-11-15T21:21:15.909Z,3.45
2022-11-15T21:26:17.749Z,3.60
2022-11-15T21:31:19.514Z,2.80
2022-11-15T21:36:21.715Z,2.38
2022-11-15T21:41:23.730Z,3.00
2022-11-15T21:46:25.699Z,2.30
2022-11-15T21:51:27.531Z,2.70
2022-11-15T21:56:29.730Z,3.30
2022-11-15T22:01:50.127Z,3.35
2022-11-15T22:06:52.089Z,2.50
2022-11-15T22:11:53.962Z,2.70
2022-11-15T22:16:55.882Z,2.63
2022-11-15T22:21:57.776Z,3.08
2022-11-15T22:26:59.651Z,3.50
2022-11-15T22:32:01.742Z,3.60
2022-11-15T22:37:19.790Z,3.47
2022-11-15T22:42:24.065Z,2.60
2022-11-15T22:47:26.333Z,3.33
2022-11-15T22:52:28.256Z,2.60
2022-11-15T22:57:30.165Z,2.97
2022-11-15T23:02:32.081Z,2.67
2022-11-15T23:07:34.374Z,2.42
2022-11-15T23:12:54.965Z,2.60
2022-11-15T23:17:56.742Z,2.85
2022-11-15T23:22:59.434Z,2.58
2022-11-15T23:28:05.208Z,2.40
2022-11-15T23:33:25.426Z,2.60
2022-11-15T23:38:27.359Z,2.67
2022-11-15T23:43:29.211Z,2.40
2022-11-15T23:48:31.413Z,2.25
2022-11-15T23:53:33.427Z,2.50
2022-11-15T23:58:35.765Z,2.38
